createdAt,value
2022-12-04T00:02:53.701Z,42.70
2022-12-04T00:06:03.830Z,52.13
2022-12-04T00:09:06.106Z,53.55
2022-12-04T00:12:08.372Z,44.53
2022-12-04T00:15:26.943Z,48.70
2022-12-04T00:18:29.372Z,48.25
2022-12-04T00:21:31.771Z,49.88
2022-12-04T00:24:34.548Z,48.63
2022-12-04T00:27:36.442Z,48.20
2022-12-04T00:30:41.641Z,44.23
2022-12-04T00:33:43.753Z,45.92
2022-12-04T00:36:46.245Z,44.58
2022-12-04T00:39:48.223Z,49.92
2022-12-04T00:42:50.249Z,47.17
2022-12-04T00:45:52.538Z,39.67
2022-12-04T00:48:55.266Z,50.10
2022-12-04T00:51:57.228Z,44.58
2022-12-04T00:54:59.256Z,44.40
2022-12-04T00:58:01.235Z,44.93
2022-12-04T01:01:09.323Z,49.70
2022-12-04T01:04:11.529Z,44.72
2022-12-04T01:07:13.615Z,42.83
2022-12-04T01:10:15.836Z,46.72
2022-12-04T01:13:17.926Z,49.63
2022-12-04T01:16:30.704Z,46.17
2022-12-04T01:19:32.719Z,39.63
2022-12-04T01:22:34.852Z,46.83
2022-12-04T01:25:36.888Z,44.38
2022-12-04T01:28:39.470Z,42.57
2022-12-04T01:31:41.643Z,35.53
2022-12-04T01:34:43.865Z,47.38
2022-12-04T01:37:45.869Z,44.22
2022-12-04T01:40:48.237Z,44.80
2022-12-04T01:44:14.257Z,43.90
2022-12-04T01:47:16.254Z,41.50
2022-12-04T01:50:18.683Z,37.78
2022-12-04T01:53:21.335Z,40.28
2022-12-04T01:56:29.390Z,38.40
2022-12-04T01:59:35.770Z,35.50
2022-12-04T02:02:47.839Z,41.00
2022-12-04T02:05:50.140Z,37.10
2022-12-04T02:08:52.228Z,33.60
2022-12-04T02:12:15.885Z,36.92
2022-12-04T02:15:29.349Z,39.20
2022-12-04T02:18:54.059Z,34.77
2022-12-04T02:21:59.561Z,33.78
2022-12-04T02:25:23.398Z,33.63
2022-12-04T02:28:28.499Z,34.00
2022-12-04T02:32:03.460Z,33.03
2022-12-04T02:35:16.987Z,37.10
2022-12-04T02:38:23.377Z,34.20
2022-12-04T02:41:42.048Z,30.12
2022-12-04T02:44:54.158Z,37.72
2022-12-04T02:47:59.124Z,35.27
2022-12-04T02:51:03.726Z,35.60
2022-12-04T02:54:20.482Z,31.10
2022-12-04T02:57:27.664Z,33.15
2022-12-04T03:00:31.986Z,34.00
2022-12-04T03:03:35.300Z,35.90
2022-12-04T03:06:40.615Z,24.40
2022-12-04T03:09:46.868Z,35.40
2022-12-04T03:13:17.252Z,34.90
2022-12-04T03:16:24.694Z,41.25
2022-12-04T03:19:29.773Z,37.77
2022-12-04T03:22:35.137Z,31.43
2022-12-04T03:25:44.401Z,30.05
2022-12-04T03:29:23.649Z,43.97
2022-12-04T03:32:39.081Z,44.72
2022-12-04T03:35:59.186Z,32.07
2022-12-04T03:39:12.308Z,40.20
2022-12-04T03:42:31.728Z,46.92
2022-12-04T03:45:47.417Z,46.13
2022-12-04T03:49:19.541Z,46.80
2022-12-04T03:52:28.129Z,45.53
2022-12-04T03:55:34.761Z,44.27
2022-12-04T03:58:41.594Z,33.35
2022-12-04T04:01:48.968Z,38.88
2022-12-04T04:04:56.012Z,52.72
2022-12-04T04:08:29.666Z,35.83
2022-12-04T04:11:38.477Z,56.13
2022-12-04T04:15:04.832Z,46.08
2022-12-04T04:18:25.424Z,35.05
2022-12-04T04:21:51.271Z,44.95
2022-12-04T04:25:11.287Z,40.20
2022-12-04T04:28:36.517Z,40.23
2022-12-04T04:31:43.342Z,28.45
2022-12-04T04:34:45.241Z,41.28
2022-12-04T04:38:20.811Z,40.28
2022-12-04T04:41:33.183Z,44.57
2022-12-04T04:44:46.609Z,34.27
2022-12-04T04:48:01.161Z,46.00
2022-12-04T04:51:04.650Z,34.80
2022-12-04T04:54:10.322Z,40.92
2022-12-04T04:57:12.294Z,24.60
2022-12-04T05:00:24.246Z,28.03
2022-12-04T05:03:27.516Z,48.28
2022-12-04T05:06:29.520Z,41.28
2022-12-04T05:09:31.483Z,46.00
2022-12-04T05:12:33.851Z,22.00
2022-12-04T05:15:36.259Z,47.23
2022-12-04T05:18:38.569Z,47.67
2022-12-04T05:21:41.782Z,43.63
2022-12-04T05:24:43.747Z,55.12
2022-12-04T05:27:45.702Z,43.17
2022-12-04T05:30:55.568Z,39.70
2022-12-04T05:33:57.594Z,41.25
2022-12-04T05:36:59.855Z,49.55
2022-12-04T05:40:01.933Z,30.50
2022-12-04T05:43:03.972Z,49.03
2022-12-04T05:46:08.629Z,56.17
2022-12-04T05:49:10.679Z,53.83
2022-12-04T05:52:14.087Z,34.65
2022-12-04T05:55:16.064Z,46.00
2022-12-04T05:58:18.105Z,44.77
2022-12-04T06:01:23.273Z,49.30
2022-12-04T06:04:25.348Z,44.55
2022-12-04T06:07:27.446Z,46.22
2022-12-04T06:10:29.504Z,46.97
2022-12-04T06:13:31.423Z,41.00
2022-12-04T06:16:39.126Z,42.87
2022-12-04T06:19:41.337Z,27.83
2022-12-04T06:22:43.443Z,32.92
2022-12-04T06:25:45.433Z,46.35
2022-12-04T06:28:47.594Z,39.77
2022-12-04T06:31:49.753Z,33.13
2022-12-04T06:34:55.487Z,37.08
2022-12-04T06:37:57.487Z,44.97
2022-12-04T06:40:59.902Z,49.67
2022-12-04T06:44:01.908Z,43.57
2022-12-04T06:47:03.857Z,30.80
2022-12-04T06:50:07.052Z,49.47
2022-12-04T06:53:09.056Z,46.50
2022-12-04T06:56:14.461Z,43.55
2022-12-04T06:59:16.584Z,44.70
2022-12-04T07:02:18.746Z,40.57
2022-12-04T07:05:20.726Z,38.55
2022-12-04T07:08:22.991Z,42.38
2022-12-04T07:11:25.328Z,43.30
2022-12-04T07:14:27.629Z,48.53
2022-12-04T07:17:29.644Z,37.50
2022-12-04T07:20:31.981Z,46.00
2022-12-04T07:23:34.601Z,29.65
2022-12-04T07:26:36.593Z,51.20
2022-12-04T07:29:38.681Z,37.60
2022-12-04T07:32:40.744Z,47.60
2022-12-04T07:35:42.764Z,50.03
2022-12-04T07:38:44.829Z,51.70
2022-12-04T07:41:47.263Z,39.42
2022-12-04T07:44:49.432Z,38.80
2022-12-04T07:47:51.386Z,44.73
2022-12-04T07:51:03.803Z,41.72
2022-12-04T07:54:06.130Z,40.50
2022-12-04T07:57:08.157Z,34.60
2022-12-04T08:00:11.140Z,38.73
2022-12-04T08:03:13.188Z,47.13
2022-12-04T08:06:16.185Z,41.88
2022-12-04T08:09:18.423Z,40.58
2022-12-04T08:12:20.424Z,48.67
2022-12-04T08:15:22.363Z,42.73
2022-12-04T08:18:24.382Z,40.40
2022-12-04T08:21:29.490Z,39.45
2022-12-04T08:24:31.515Z,24.50
2022-12-04T08:27:34.033Z,41.22
2022-12-04T08:30:36.431Z,38.70
2022-12-04T08:33:38.723Z,38.10
2022-12-04T08:36:40.927Z,39.00
2022-12-04T08:39:42.898Z,27.70
2022-12-04T08:42:44.893Z,43.78
2022-12-04T08:45:55.970Z,42.93
2022-12-04T08:48:58.617Z,37.83
2022-12-04T08:52:00.569Z,28.85
2022-12-04T08:55:02.637Z,21.05
2022-12-04T08:58:04.661Z,30.35
2022-12-04T09:01:10.628Z,40.37
2022-12-04T09:04:13.554Z,25.83
2022-12-04T09:07:16.030Z,39.33
2022-12-04T09:10:18.558Z,31.33
2022-12-04T09:13:21.045Z,28.38
2022-12-04T09:16:25.244Z,30.57
2022-12-04T09:19:29.145Z,33.40
2022-12-04T09:22:51.377Z,26.00
2022-12-04T09:25:54.631Z,31.00
2022-12-04T09:29:00.178Z,19.30
2022-12-04T09:32:02.179Z,41.57
2022-12-04T09:35:06.836Z,23.27
2022-12-04T09:38:09.362Z,29.30
2022-12-04T09:41:33.795Z,27.70
2022-12-04T09:45:07.979Z,27.50
2022-12-04T09:48:12.682Z,27.67
2022-12-04T09:51:19.414Z,22.50
2022-12-04T09:54:26.531Z,15.95
2022-12-04T09:57:44.281Z,21.33
2022-12-04T10:00:50.482Z,33.70
2022-12-04T10:03:54.737Z,20.73
2022-12-04T10:07:17.126Z,15.93
2022-12-04T10:10:37.440Z,20.27
2022-12-04T10:14:02.030Z,28.15
2022-12-04T10:17:20.276Z,29.63
2022-12-04T10:20:38.214Z,28.93
2022-12-04T10:23:46.782Z,22.77
2022-12-04T10:26:49.921Z,25.27
2022-12-04T10:29:58.369Z,34.25
2022-12-04T10:33:13.401Z,26.42
2022-12-04T10:36:22.158Z,21.20
2022-12-04T10:39:33.381Z,19.93
2022-12-04T10:42:56.192Z,23.77
2022-12-04T10:45:58.720Z,28.30
2022-12-04T10:49:12.549Z,21.15
2022-12-04T10:52:14.568Z,26.63
2022-12-04T10:55:31.572Z,22.90
2022-12-04T10:58:33.701Z,22.90
2022-12-04T11:01:36.129Z,14.90
2022-12-04T11:04:38.303Z,18.42
2022-12-04T11:07:47.135Z,29.57
2022-12-04T11:11:00.520Z,24.27
2022-12-04T11:14:14.868Z,24.23
2022-12-04T11:17:20.051Z,30.23
2022-12-04T11:20:26.507Z,20.95
2022-12-04T11:23:43.713Z,23.60
2022-12-04T11:26:47.452Z,16.27
2022-12-04T11:29:52.518Z,20.30
2022-12-04T11:32:55.695Z,26.65
2022-12-04T11:36:03.420Z,30.83
2022-12-04T11:39:30.090Z,30.03
2022-12-04T11:42:33.208Z,26.57
2022-12-04T11:45:35.442Z,25.73
2022-12-04T11:48:45.566Z,26.15
2022-12-04T11:52:46.307Z,28.45
2022-12-04T11:55:59.075Z,24.53
2022-12-04T11:59:35.897Z,19.23
2022-12-04T12:02:56.973Z,20.85
2022-12-04T12:06:25.815Z,29.77
2022-12-04T12:09:43.192Z,17.17
2022-12-04T12:13:06.034Z,27.03
2022-12-04T12:16:25.675Z,27.40
2022-12-04T12:19:36.775Z,27.92
2022-12-04T12:23:06.608Z,23.58
2022-12-04T12:26:15.950Z,19.90
2022-12-04T12:29:34.095Z,22.87
2022-12-04T12:32:45.857Z,22.73
2022-12-04T12:36:14.593Z,14.07
2022-12-04T12:39:23.524Z,24.45
2022-12-04T12:42:31.021Z,25.10
2022-12-04T12:45:43.123Z,22.73
2022-12-04T12:49:01.175Z,23.47
2022-12-04T12:52:20.581Z,18.58
2022-12-04T12:55:41.525Z,23.02
2022-12-04T12:58:51.054Z,12.75
2022-12-04T13:02:14.710Z,25.43
2022-12-04T13:05:25.539Z,16.67
2022-12-04T13:08:35.395Z,25.62
2022-12-04T13:11:38.880Z,23.70
2022-12-04T13:14:44.675Z,20.92
2022-12-04T13:17:55.788Z,19.73
2022-12-04T13:21:03.167Z,21.23
2022-12-04T13:24:35.255Z,19.83
2022-12-04T13:27:58.447Z,22.02
2022-12-04T13:31:26.009Z,26.87
2022-12-04T13:34:33.953Z,24.03
2022-12-04T13:37:38.827Z,29.90
2022-12-04T13:40:47.919Z,28.20
2022-12-04T13:43:52.375Z,22.30
2022-12-04T13:46:57.279Z,22.27
2022-12-04T13:50:17.995Z,23.87
2022-12-04T13:53:40.520Z,21.83
2022-12-04T13:56:49.087Z,25.83
2022-12-04T14:00:05.210Z,25.88
2022-12-04T14:03:25.633Z,31.25
2022-12-04T14:06:43.739Z,32.13
2022-12-04T14:09:53.756Z,29.37
2022-12-04T14:13:00.620Z,25.95
2022-12-04T14:16:30.244Z,22.17
2022-12-04T14:19:36.135Z,22.42
2022-12-04T14:22:38.145Z,26.67
2022-12-04T14:25:40.789Z,24.90
2022-12-04T14:28:44.391Z,21.90
2022-12-04T14:31:46.908Z,23.25
2022-12-04T14:34:50.123Z,21.48
2022-12-04T14:38:04.349Z,14.60
2022-12-04T14:44:36.778Z,23.35
2022-12-04T14:48:06.256Z,23.15
2022-12-04T14:51:25.739Z,22.92
2022-12-04T14:54:36.603Z,23.00
2022-12-04T14:57:48.367Z,27.33
2022-12-04T15:00:55.638Z,23.60
2022-12-04T15:04:04.547Z,23.70
2022-12-04T15:07:08.384Z,24.65
2022-12-04T15:10:47.955Z,22.33
2022-12-04T15:13:51.042Z,19.30
2022-12-04T15:17:06.494Z,20.92
2022-12-04T15:20:20.205Z,22.42
2022-12-04T15:23:35.057Z,21.50
2022-12-04T15:26:39.125Z,24.43
2022-12-04T15:29:48.857Z,23.50
2022-12-04T15:32:55.599Z,22.45
2022-12-04T15:36:03.702Z,24.73
2022-12-04T15:39:06.991Z,22.90
2022-12-04T15:42:17.589Z,26.10
2022-12-04T15:45:19.746Z,22.83
2022-12-04T15:48:30.741Z,24.98
2022-12-04T15:51:35.998Z,24.15
2022-12-04T15:54:43.931Z,24.70
2022-12-04T15:57:54.640Z,28.53
2022-12-04T16:01:07.301Z,24.70
2022-12-04T16:04:22.320Z,20.67
2022-12-04T16:07:30.143Z,24.27
2022-12-04T16:10:35.168Z,21.20
2022-12-04T16:13:39.385Z,19.60
2022-12-04T16:16:45.074Z,20.03
2022-12-04T16:19:48.128Z,22.45
2022-12-04T16:22:55.153Z,21.70
2022-12-04T16:25:58.171Z,23.42
2022-12-04T16:29:01.295Z,22.53
2022-12-04T16:32:04.091Z,24.93
2022-12-04T16:35:07.666Z,22.48
2022-12-04T16:38:17.803Z,25.92
2022-12-04T16:41:22.142Z,24.17
2022-12-04T16:44:24.589Z,24.87
2022-12-04T16:47:27.278Z,22.77
2022-12-04T16:50:30.698Z,21.45
2022-12-04T16:53:33.771Z,20.42
2022-12-04T16:56:35.867Z,22.30
2022-12-04T16:59:38.129Z,21.17
2022-12-04T17:02:41.153Z,21.80
2022-12-04T17:05:43.740Z,23.95
2022-12-04T17:08:46.386Z,19.48
2022-12-04T17:11:49.220Z,21.25
2022-12-04T17:14:55.763Z,22.13
2022-12-04T17:17:58.436Z,26.37
2022-12-04T17:21:06.504Z,23.80
2022-12-04T17:24:09.582Z,23.83
2022-12-04T17:27:14.806Z,24.83
2022-12-04T17:30:18.266Z,23.77
2022-12-04T17:33:20.591Z,21.53
2022-12-04T17:36:26.666Z,23.35
2022-12-04T17:39:29.576Z,25.08
2022-12-04T17:42:32.588Z,24.02
2022-12-04T17:45:35.056Z,25.53
2022-12-04T17:48:38.565Z,24.67
2022-12-04T17:51:40.765Z,24.25
2022-12-04T17:54:42.741Z,24.30
2022-12-04T17:57:45.042Z,24.12
2022-12-04T18:00:47.712Z,25.40
2022-12-04T18:03:53.933Z,24.93
2022-12-04T18:06:57.079Z,28.05
2022-12-04T18:09:59.836Z,22.98
2022-12-04T18:13:02.754Z,25.02
2022-12-04T18:16:12.682Z,27.00
2022-12-04T18:19:15.914Z,23.90
2022-12-04T18:22:19.551Z,28.48
2022-12-04T18:25:22.168Z,24.17
2022-12-04T18:28:25.353Z,24.17
2022-12-04T18:31:27.809Z,27.57
2022-12-04T18:34:30.216Z,24.57
2022-12-04T18:37:34.185Z,24.75
2022-12-04T18:40:36.967Z,26.25
2022-12-04T18:43:42.894Z,22.75
2022-12-04T18:46:45.738Z,24.60
2022-12-04T18:49:48.337Z,27.27
2022-12-04T18:52:57.764Z,23.70
2022-12-04T18:56:02.705Z,34.72
2022-12-04T18:59:16.652Z,31.65
2022-12-04T19:02:19.183Z,31.57
2022-12-04T19:05:21.907Z,34.37
2022-12-04T19:08:28.497Z,41.47
2022-12-04T19:11:34.626Z,57.33
2022-12-04T19:14:38.553Z,116.22
2022-12-04T19:17:41.128Z,96.73
2022-12-04T19:20:47.656Z,88.30
2022-12-04T19:23:53.788Z,64.75
2022-12-04T19:26:56.479Z,49.28
2022-12-04T19:30:00.660Z,39.13
2022-12-04T19:33:03.787Z,33.27
2022-12-04T19:36:06.985Z,37.63
2022-12-04T19:39:10.677Z,37.38
2022-12-04T19:42:13.249Z,35.47
2022-12-04T19:45:17.829Z,32.53
2022-12-04T19:48:20.661Z,34.50
2022-12-04T19:51:24.721Z,33.97
2022-12-04T19:54:28.022Z,31.00
2022-12-04T19:57:30.150Z,32.08
2022-12-04T20:00:32.653Z,35.08
2022-12-04T20:03:36.301Z,36.97
2022-12-04T20:06:44.307Z,30.53
2022-12-04T20:09:52.029Z,31.27
2022-12-04T20:12:54.971Z,29.12
2022-12-04T20:16:02.631Z,28.62
2022-12-04T20:19:07.162Z,30.63
2022-12-04T20:22:09.836Z,25.30
2022-12-04T20:25:13.476Z,33.70
2022-12-04T20:28:16.024Z,44.03
2022-12-04T20:31:30.049Z,32.20
2022-12-04T20:34:32.762Z,28.13
2022-12-04T20:37:36.498Z,32.03
2022-12-04T20:40:39.271Z,29.58
2022-12-04T20:43:46.122Z,30.30
2022-12-04T20:46:49.285Z,30.90
2022-12-04T20:49:51.823Z,25.60
2022-12-04T20:52:55.228Z,30.00
2022-12-04T20:55:57.299Z,28.23
2022-12-04T20:59:06.531Z,31.20
2022-12-04T21:02:11.715Z,35.00
2022-12-04T21:05:14.152Z,24.73
2022-12-04T21:08:39.541Z,25.03
2022-12-04T21:11:48.282Z,27.90
2022-12-04T21:15:08.919Z,32.00
2022-12-04T21:18:11.179Z,29.85
2022-12-04T21:21:13.204Z,27.30
2022-12-04T21:24:17.538Z,29.70
2022-12-04T21:27:21.347Z,29.83
2022-12-04T21:30:23.563Z,26.10
2022-12-04T21:33:26.013Z,31.95
2022-12-04T21:36:29.138Z,32.63
2022-12-04T21:39:31.329Z,31.27
2022-12-04T21:42:34.632Z,32.70
2022-12-04T21:45:36.586Z,32.92
2022-12-04T21:48:39.188Z,27.10
2022-12-04T21:51:57.134Z,30.73
2022-12-04T21:54:59.997Z,27.13
2022-12-04T21:58:01.974Z,33.17
2022-12-04T22:01:24.623Z,28.90
2022-12-04T22:04:26.846Z,31.23
2022-12-04T22:07:28.971Z,32.37
2022-12-04T22:10:31.671Z,31.27
2022-12-04T22:13:33.991Z,31.65
2022-12-04T22:16:41.566Z,29.25
2022-12-04T22:19:44.763Z,29.20
2022-12-04T22:22:46.749Z,26.70
2022-12-04T22:25:48.743Z,27.93
2022-12-04T22:28:51.102Z,25.05
2022-12-04T22:31:53.135Z,27.13
2022-12-04T22:34:55.205Z,27.23
2022-12-04T22:37:57.230Z,28.07
2022-12-04T22:41:04.197Z,25.70
2022-12-04T22:44:06.389Z,25.70
2022-12-04T22:47:08.469Z,27.45
2022-12-04T22:50:12.176Z,28.52
2022-12-04T22:53:14.206Z,28.20
2022-12-04T22:56:28.067Z,25.87
2022-12-04T22:59:30.139Z,28.92
2022-12-04T23:02:33.124Z,35.25
2022-12-04T23:05:35.366Z,31.17
2022-12-04T23:08:38.646Z,28.87
2022-12-04T23:11:41.540Z,30.33
2022-12-04T23:14:43.442Z,28.35
2022-12-04T23:17:45.720Z,25.27
2022-12-04T23:20:47.691Z,30.37
2022-12-04T23:23:52.183Z,25.87
2022-12-04T23:26:54.537Z,27.50
2022-12-04T23:29:56.693Z,29.92
2022-12-04T23:32:58.692Z,30.45
2022-12-04T23:36:02.433Z,32.30
2022-12-04T23:39:04.544Z,31.67
2022-12-04T23:42:06.914Z,28.83
2022-12-04T23:45:09.254Z,32.22
2022-12-04T23:48:11.458Z,32.58
2022-12-04T23:51:15.723Z,32.25
2022-12-04T23:54:17.955Z,33.67
2022-12-04T23:57:19.999Z,27.00
